Last 24 Hour KALB Observations

Last 24 hours of surface weather observations from the Albany County Airport. Observations taken by the National Weather Service.


		
KALB 240751Z 29008G18KT 10SM CLR 01/M07 A3013 RMK AO2 SLP208 T00061072=
KALB 240851Z 28005KT 10SM CLR 00/M08 A3014 RMK AO2 SLP209 T00001078 51006=
KALB 240951Z 00000KT 10SM CLR M01/M08 A3014 RMK AO2 SLP210 T10111083=
KALB 241051Z 00000KT 10SM CLR M02/M08 A3014 RMK AO2 SLP210 T10221083=
KALB 241151Z 18004KT 10SM CLR M01/M07 A3016 RMK AO2 SLP215 T10061072 10017
 21033 53006=
KALB 241251Z 16004KT 10SM FEW250 02/M07 A3016 RMK AO2 SLP216 T00221067=
KALB 241351Z 16005KT 10SM FEW250 05/M08 A3015 RMK AO2 SLP212 T00501078=
KALB 241451Z 26012KT 10SM FEW200 BKN250 08/M08 A3013 RMK AO2 SLP204 T00781083
 58009=
KALB 241551Z 29013KT 10SM FEW200 BKN250 09/M08 A3010 RMK AO2 SLP195 T00941078=
KALB 241651Z 29012G19KT 10SM FEW200 BKN250 11/M08 A3007 RMK AO2 SLP185 BKN V
 SCT T01061078=
KALB 241751Z 26015KT 10SM FEW200 BKN250 12/M11 A3003 RMK AO2 PRESFR SLP169
 T01221106 10122 21006 58034=
KALB 241851Z 22009KT 10SM SCT170 OVC250 12/M10 A2999 RMK AO2 SLP158 T01221100=
KALB 241951Z 23011KT 10SM SCT140 BKN170 BKN250 13/M11 A2998 RMK AO2 SLP152
 T01281106=
KALB 242051Z 25013G21KT 10SM FEW140 SCT170 BKN250 13/M11 A2996 RMK AO2 SLP147
 T01281111 56022=
KALB 242151Z 26013KT 10SM SCT140 BKN160 BKN250 12/M10 A2997 RMK AO2 SLP151
 T01221100=
KALB 242251Z 31009KT 10SM SCT110 BKN160 BKN250 11/M07 A2999 RMK AO2 SLP158
 T01061072=
KALB 242351Z 30006KT 10SM CLR 08/M06 A3001 RMK AO2 SLP164 T00781056 10139 20072
 53016=
KALB 250051Z 11003KT 10SM FEW110 06/M04 A3002 RMK AO2 SLP167 T00561044=
KALB 250151Z 16004KT 10SM FEW140 SCT250 03/M05 A3002 RMK AO2 SLP166 T00331050=
KALB 250251Z 20004KT 10SM FEW140 BKN260 02/M06 A3001 RMK AO2 SLP163 T00171056
 58001=
KALB 250351Z 00000KT 10SM FEW120 BKN260 03/M07 A3001 RMK AO2 SLP165 T00331067=
KALB 250451Z 00000KT 10SM BKN260 02/M07 A3002 RMK AO2 SLP165 T00221067
 401391033=
KALB 250551Z 00000KT 10SM FEW260 01/M06 A3002 RMK AO2 SLP167 T00111056 10078
 20000 51004=
KALB 250651Z 00000KT 10SM FEW047 FEW260 M01/M06 A3002 RMK AO2 SLP169 T10061061=
KALB 250751Z 27009KT 10SM OVC049 04/M03 A3002 RMK AO2 SLP166 T00441033=